Time;durP1;ratioP1;P1;durP2;ratioP2;P2;SDS_P1;SDS_P2;PMS_P1;PMS_P2;Temp;Humidity;BMP_temperature;BMP_pressure;BME280_temperature;BME280_humidity;BME280_pressure;Samples;Min_cycle;Max_cycle;Signal;HPM_P1;HPM_P2
2022/06/16 00:01:54;;;;;;;11.13;6.32;;;12.10;92.90;;;;;;5139862;27;20068;-62
2022/06/16 00:04:20;;;;;;;9.63;6.55;;;12.00;93.00;;;;;;5127403;27;21324;-61
2022/06/16 00:06:46;;;;;;;10.07;5.65;;;12.00;93.40;;;;;;5149933;27;20382;-61
2022/06/16 00:09:12;;;;;;;10.38;6.47;;;12.00;93.20;;;;;;5149727;27;20073;-62
2022/06/16 00:11:37;;;;;;;11.20;6.95;;;12.00;93.30;;;;;;5141053;27;20034;-61
2022/06/16 00:14:03;;;;;;;7.38;6.07;;;12.00;93.40;;;;;;5145841;27;20035;-62
2022/06/16 00:16:28;;;;;;;12.13;6.55;;;11.90;93.50;;;;;;5130179;27;20043;-62
2022/06/16 00:18:54;;;;;;;10.68;7.03;;;12.00;93.80;;;;;;5141411;27;20042;-62
2022/06/16 00:21:20;;;;;;;10.57;6.93;;;12.00;93.70;;;;;;5127777;27;20049;-61
2022/06/16 00:23:46;;;;;;;10.57;6.35;;;12.00;93.90;;;;;;5134161;27;20026;-62
2022/06/16 00:26:18;;;;;;;9.68;6.72;;;12.00;94.00;;;;;;5125514;27;20046;-63
2022/06/16 00:28:46;;;;;;;9.07;6.40;;;12.00;94.40;;;;;;5130722;27;20743;-63
2022/06/16 00:31:13;;;;;;;9.43;6.25;;;12.00;94.10;;;;;;5142537;27;20043;-61
2022/06/16 00:33:39;;;;;;;9.20;6.45;;;12.00;94.20;;;;;;5146279;27;20038;-62
2022/06/16 00:36:05;;;;;;;7.28;5.82;;;12.10;94.30;;;;;;5144271;27;20490;-61
2022/06/16 00:38:31;;;;;;;9.35;6.25;;;12.10;94.30;;;;;;5142474;27;20039;-61
2022/06/16 00:40:57;;;;;;;8.15;6.63;;;12.00;94.20;;;;;;5131538;27;20031;-62
2022/06/16 00:43:22;;;;;;;9.55;6.28;;;11.90;94.40;;;;;;5145895;27;20051;-62
2022/06/16 00:45:55;;;;;;;10.93;6.68;;;11.90;94.50;;;;;;5147814;27;20071;-62
2022/06/16 00:48:36;;;;;;;8.15;5.90;;;11.80;94.90;;;;;;5146513;27;20035;-61
2022/06/16 00:51:09;;;;;;;9.00;6.13;;;11.80;95.20;;;;;;5140870;27;20035;-63
2022/06/16 00:53:37;;;;;;;11.82;6.00;;;11.70;95.30;;;;;;5144378;27;20066;-61
2022/06/16 00:56:04;;;;;;;7.10;5.60;;;11.80;95.10;;;;;;5148920;27;20075;-61
2022/06/16 00:58:32;;;;;;;8.32;6.28;;;11.70;95.20;;;;;;5142060;27;20039;-62
2022/06/16 01:00:58;;;;;;;7.95;6.00;;;11.60;95.40;;;;;;5138330;27;20067;-61
2022/06/16 01:06:29;;;;;;;8.73;6.20;;;11.60;95.50;;;;;;5151462;27;20089;-62
2022/06/16 01:09:04;;;;;;;10.05;6.70;;;11.50;96.60;;;;;;5147284;27;20118;-61
2022/06/16 01:14:50;;;;;;;9.00;6.43;;;11.40;97.50;;;;;;5139656;27;20031;-63
2022/06/16 01:17:51;;;;;;;8.55;6.28;;;11.40;96.20;;;;;;5144645;27;20126;-61
2022/06/16 01:20:21;;;;;;;11.48;6.35;;;11.40;97.30;;;;;;5099303;27;20487;-61
2022/06/16 01:23:14;;;;;;;8.48;6.75;;;11.40;96.40;;;;;;5138484;27;20530;-62
2022/06/16 01:26:00;;;;;;;11.05;6.47;;;11.40;96.90;;;;;;5148281;27;20038;-61
2022/06/16 01:28:47;;;;;;;10.13;6.72;;;11.40;97.20;;;;;;5148415;27;20129;-61
2022/06/16 01:31:31;;;;;;;9.70;6.88;;;11.40;96.40;;;;;;5139586;27;20118;-62
2022/06/16 01:34:23;;;;;;;12.27;6.25;;;11.40;96.50;;;;;;5125257;27;20420;-63
2022/06/16 01:37:00;;;;;;;11.38;7.28;;;11.30;96.80;;;;;;5130378;27;20039;-61
2022/06/16 01:39:37;;;;;;;11.48;6.07;;;11.20;97.20;;;;;;5150385;27;20481;-61
2022/06/16 01:42:18;;;;;;;11.82;7.15;;;11.20;98.20;;;;;;5146155;27;20454;-60
2022/06/16 01:44:55;;;;;;;10.82;6.95;;;11.20;99.50;;;;;;5148190;27;20039;-61
2022/06/16 01:47:23;;;;;;;11.35;6.15;;;11.10;98.40;;;;;;5144921;27;20065;-61
2022/06/16 01:49:53;;;;;;;13.18;6.65;;;11.10;98.00;;;;;;5145412;27;20039;-61
2022/06/16 01:52:23;;;;;;;;;;;11.20;98.20;;;;;;5148264;27;20497;-61
2022/06/16 01:55:11;;;;;;;10.00;6.40;;;11.10;98.90;;;;;;5149398;27;19919;-61
2022/06/16 01:57:44;;;;;;;9.07;6.30;;;11.10;98.50;;;;;;5140549;27;20038;-62
2022/06/16 02:00:23;;;;;;;8.63;6.03;;;11.10;97.90;;;;;;5146701;27;20049;-61
2022/06/16 02:03:06;;;;;;;10.60;6.35;;;11.20;98.30;;;;;;5143368;27;20043;-61
2022/06/16 02:05:34;;;;;;;8.32;6.55;;;11.30;98.20;;;;;;5145283;27;20039;-61
2022/06/16 02:08:15;;;;;;;10.65;6.80;;;11.30;97.60;;;;;;5120156;27;20143;-62
2022/06/16 02:10:45;;;;;;;12.48;6.72;;;11.20;97.60;;;;;;5137735;27;20034;-60
2022/06/16 02:13:15;;;;;;;10.93;6.35;;;11.20;97.80;;;;;;5154004;27;20087;-62
2022/06/16 02:15:45;;;;;;;9.50;6.88;;;11.10;97.80;;;;;;5148948;27;20047;-61
2022/06/16 02:18:16;;;;;;;10.30;6.43;;;11.10;98.20;;;;;;5130162;27;20430;-61
2022/06/16 02:21:01;;;;;;;10.15;6.70;;;11.10;98.10;;;;;;5146699;27;20089;-61
2022/06/16 02:23:26;;;;;;;13.65;6.63;;;11.20;98.80;;;;;;5148876;27;20438;-61
2022/06/16 02:25:55;;;;;;;10.57;6.53;;;11.20;98.30;;;;;;5153069;27;20077;-61
2022/06/16 02:28:22;;;;;;;10.13;6.45;;;11.30;98.30;;;;;;5150723;27;20038;-61
2022/06/16 02:31:25;;;;;;;9.52;6.03;;;11.30;98.10;;;;;;5146875;27;20039;-61
2022/06/16 02:34:07;;;;;;;12.65;6.10;;;11.40;98.70;;;;;;5146820;27;20078;-61
2022/06/16 02:37:17;;;;;;;13.50;7.55;;;11.40;98.40;;;;;;5148986;27;20027;-61
2022/06/16 02:39:55;;;;;;;;;;;11.40;99.90;;;;;;5145314;27;20107;-60
2022/06/16 02:42:44;;;;;;;10.63;6.35;;;11.30;99.90;;;;;;5153474;27;19915;-62
2022/06/16 02:45:51;;;;;;;11.07;6.90;;;11.30;98.60;;;;;;5147138;27;20410;-61
2022/06/16 02:48:37;;;;;;;10.38;6.88;;;11.30;98.90;;;;;;5131504;27;20506;-61
2022/06/16 02:51:27;;;;;;;12.50;6.93;;;11.20;99.00;;;;;;5144153;27;20055;-61
2022/06/16 02:54:22;;;;;;;12.48;7.38;;;11.20;99.20;;;;;;5149469;27;20038;-62
2022/06/16 02:56:57;;;;;;;11.20;6.60;;;11.20;99.50;;;;;;5146794;27;20037;-61
2022/06/16 02:59:27;;;;;;;11.32;6.75;;;11.20;98.80;;;;;;5143743;27;20046;-61
2022/06/16 03:02:00;;;;;;;10.20;7.00;;;11.30;99.00;;;;;;5147282;27;20031;-61
2022/06/16 03:04:44;;;;;;;11.75;7.05;;;11.30;99.00;;;;;;5142416;27;20107;-61
2022/06/16 03:07:16;;;;;;;13.80;7.82;;;11.40;99.30;;;;;;5146605;27;20042;-61
2022/06/16 03:09:41;;;;;;;10.18;7.20;;;11.40;99.50;;;;;;5146675;27;20053;-62
2022/06/16 03:12:09;;;;;;;10.60;6.68;;;11.40;99.20;;;;;;5140307;27;20038;-61
2022/06/16 03:14:35;;;;;;;14.13;7.68;;;11.40;99.20;;;;;;5151679;27;20047;-61
2022/06/16 03:17:02;;;;;;;12.00;7.57;;;11.40;99.20;;;;;;5145169;27;20057;-61
2022/06/16 03:19:27;;;;;;;13.80;7.95;;;11.50;99.30;;;;;;5151970;27;20047;-61
2022/06/16 03:21:54;;;;;;;9.18;7.20;;;11.40;99.40;;;;;;5144712;27;20050;-61
2022/06/16 03:24:20;;;;;;;13.13;6.78;;;11.50;99.50;;;;;;5145890;27;20041;-61
2022/06/16 03:26:46;;;;;;;13.38;7.80;;;11.50;99.50;;;;;;5148993;27;20054;-62
2022/06/16 03:29:12;;;;;;;12.32;7.43;;;11.50;99.60;;;;;;5143376;27;20134;-62
2022/06/16 03:31:37;;;;;;;11.95;7.03;;;11.50;99.70;;;;;;5137787;27;20039;-63
2022/06/16 03:34:03;;;;;;;10.45;6.97;;;11.50;99.60;;;;;;5145258;27;20058;-61
2022/06/16 03:36:28;;;;;;;11.23;6.72;;;11.40;99.60;;;;;;5147696;27;20043;-61
2022/06/16 03:38:54;;;;;;;10.43;7.32;;;11.40;99.90;;;;;;5141316;27;20035;-61
2022/06/16 03:41:19;;;;;;;9.98;6.82;;;11.40;99.70;;;;;;5149304;27;20039;-61
2022/06/16 03:43:45;;;;;;;11.40;7.55;;;11.40;99.70;;;;;;5148756;27;20039;-62
2022/06/16 03:46:12;;;;;;;15.88;7.65;;;11.40;99.80;;;;;;5146971;27;20038;-61
2022/06/16 03:48:38;;;;;;;11.98;7.30;;;11.40;99.70;;;;;;5144979;27;20047;-61
2022/06/16 03:51:06;;;;;;;10.80;7.85;;;11.30;99.80;;;;;;5149398;27;20039;-61
2022/06/16 03:53:32;;;;;;;12.18;7.40;;;11.40;99.90;;;;;;5132152;27;20413;-61
2022/06/16 03:55:58;;;;;;;10.77;6.53;;;11.40;99.90;;;;;;5144852;27;20204;-61
2022/06/16 03:58:24;;;;;;;9.68;6.57;;;11.50;99.90;;;;;;5149673;27;20165;-61
2022/06/16 04:00:50;;;;;;;14.00;6.97;;;11.50;99.90;;;;;;5137840;27;20041;-61
2022/06/16 04:06:01;;;;;;;11.73;7.25;;;11.50;99.90;;;;;;5144091;27;20490;-61
2022/06/16 04:08:26;;;;;;;11.90;7.20;;;11.60;99.90;;;;;;5146466;27;20031;-62
2022/06/16 04:10:52;;;;;;;11.10;6.95;;;11.60;99.90;;;;;;5138736;27;20031;-63
2022/06/16 04:13:17;;;;;;;11.77;6.80;;;11.60;99.90;;;;;;5148465;27;20175;-62
2022/06/16 04:15:43;;;;;;;10.45;6.68;;;11.60;99.90;;;;;;5145550;27;20054;-62
2022/06/16 04:18:09;;;;;;;13.05;7.32;;;11.60;99.90;;;;;;5147274;27;20049;-62
2022/06/16 04:20:35;;;;;;;9.02;6.70;;;11.60;99.90;;;;;;5148138;27;20035;-61
2022/06/16 04:23:01;;;;;;;12.23;7.35;;;11.60;99.90;;;;;;5149002;27;20026;-61
2022/06/16 04:25:30;;;;;;;11.20;7.40;;;11.50;99.90;;;;;;5124689;27;20497;-61
2022/06/16 04:28:01;;;;;;;12.57;7.45;;;11.60;99.90;;;;;;5143000;27;20375;-61
2022/06/16 04:30:28;;;;;;;11.05;6.63;;;11.60;99.90;;;;;;5148181;27;20042;-62
2022/06/16 04:32:54;;;;;;;14.50;7.20;;;11.70;99.90;;;;;;5141822;27;20110;-61
2022/06/16 04:35:20;;;;;;;12.18;7.20;;;11.80;99.90;;;;;;5137259;27;20442;-61
2022/06/16 04:37:45;;;;;;;12.98;7.47;;;12.00;99.90;;;;;;5147755;27;20042;-62
2022/06/16 04:40:11;;;;;;;12.73;8.07;;;12.10;99.90;;;;;;5143546;27;20117;-62
2022/06/16 04:42:37;;;;;;;12.00;7.93;;;12.30;99.90;;;;;;5147786;27;20076;-61
2022/06/16 04:45:04;;;;;;;12.45;6.70;;;12.50;99.80;;;;;;5141346;27;20042;-62
2022/06/16 04:47:30;;;;;;;10.32;7.00;;;12.60;99.70;;;;;;5149669;27;20125;-62
2022/06/16 04:49:55;;;;;;;11.20;7.50;;;12.70;99.60;;;;;;5127909;27;20119;-62
2022/06/16 04:52:21;;;;;;;12.60;7.63;;;12.90;99.40;;;;;;5147452;27;20043;-62
2022/06/16 04:54:48;;;;;;;14.07;8.05;;;13.10;99.20;;;;;;5110759;27;20030;-62
2022/06/16 04:57:14;;;;;;;16.92;6.85;;;13.40;99.00;;;;;;5149602;27;20034;-61
2022/06/16 04:59:40;;;;;;;14.38;6.80;;;13.60;98.70;;;;;;5135704;27;20034;-61
2022/06/16 05:02:06;;;;;;;12.18;7.22;;;13.70;98.40;;;;;;5142350;27;20066;-61
2022/06/16 05:04:33;;;;;;;18.25;7.47;;;13.80;98.30;;;;;;5149095;27;20474;-63
2022/06/16 05:06:58;;;;;;;14.63;6.93;;;13.80;98.10;;;;;;5151452;27;20103;-62
2022/06/16 05:09:24;;;;;;;16.08;7.43;;;14.00;98.00;;;;;;5143841;27;20043;-63
2022/06/16 05:11:50;;;;;;;12.45;6.40;;;14.10;97.90;;;;;;5138821;27;20027;-62
2022/06/16 05:14:16;;;;;;;11.68;6.97;;;14.20;97.80;;;;;;5149416;27;20045;-62
2022/06/16 05:16:42;;;;;;;13.10;6.93;;;14.40;97.50;;;;;;5145144;27;20041;-61
2022/06/16 05:19:07;;;;;;;13.35;7.07;;;14.60;97.40;;;;;;5150314;27;20041;-63
2022/06/16 05:21:33;;;;;;;13.75;7.30;;;14.70;97.10;;;;;;5147292;27;20087;-63
2022/06/16 05:23:59;;;;;;;11.27;7.15;;;14.80;96.90;;;;;;5151468;27;20727;-62
2022/06/16 05:26:24;;;;;;;12.93;6.57;;;14.90;96.60;;;;;;5149363;27;20035;-61
2022/06/16 05:28:50;;;;;;;8.15;6.00;;;15.00;96.30;;;;;;5147963;27;20045;-62
2022/06/16 05:31:16;;;;;;;11.15;5.70;;;15.00;96.20;;;;;;5146264;27;20065;-62
2022/06/16 05:33:41;;;;;;;6.97;5.28;;;15.10;95.80;;;;;;5146275;27;20062;-62
2022/06/16 05:36:10;;;;;;;8.32;5.05;;;15.20;95.60;;;;;;5128831;27;20034;-62
2022/06/16 05:38:36;;;;;;;10.60;5.25;;;15.20;95.20;;;;;;5125939;27;20096;-62
2022/06/16 05:41:06;;;;;;;10.20;4.85;;;15.30;94.90;;;;;;5150761;27;20034;-62
2022/06/16 05:43:33;;;;;;;7.35;4.65;;;15.40;94.60;;;;;;5153705;27;20035;-62
2022/06/16 05:45:59;;;;;;;10.15;4.97;;;15.50;94.30;;;;;;5146217;27;20030;-62
2022/06/16 05:48:26;;;;;;;13.02;5.03;;;15.60;94.00;;;;;;5147523;27;20030;-62
2022/06/16 05:50:52;;;;;;;9.20;4.65;;;15.70;93.70;;;;;;5152124;27;20039;-62
2022/06/16 05:53:18;;;;;;;10.85;4.80;;;15.70;93.70;;;;;;5148450;27;20417;-62
2022/06/16 05:55:44;;;;;;;11.27;5.70;;;15.70;93.50;;;;;;5141415;27;20041;-63
2022/06/16 05:58:09;;;;;;;11.18;5.18;;;15.80;93.40;;;;;;5151230;27;20049;-62
2022/06/16 06:00:35;;;;;;;9.85;5.90;;;15.90;93.30;;;;;;5141210;27;20043;-62
2022/06/16 06:03:01;;;;;;;12.70;5.65;;;16.00;93.30;;;;;;5145673;27;20457;-63
2022/06/16 06:05:28;;;;;;;9.55;6.25;;;16.20;93.10;;;;;;5135601;27;20739;-62
2022/06/16 06:16:25;;;;;;;8.73;5.68;;;16.30;92.90;;;;;;5151215;27;20047;-62
2022/06/16 06:18:52;;;;;;;8.02;4.88;;;16.50;92.80;;;;;;5152406;27;20091;-63
2022/06/16 06:21:57;;;;;;;9.20;5.43;;;16.60;92.60;;;;;;5151549;27;20506;-62
2022/06/16 06:24:04;;;;;;;8.32;4.97;;;16.80;92.30;;;;;;5150097;27;20065;-63
2022/06/16 06:26:30;;;;;;;7.32;4.25;;;17.10;92.10;;;;;;5150653;27;20116;-63
2022/06/16 06:28:55;;;;;;;5.10;3.88;;;17.40;91.50;;;;;;5145433;27;20043;-63
2022/06/16 06:31:21;;;;;;;7.25;3.58;;;17.50;91.30;;;;;;5148876;27;20129;-63
2022/06/16 06:33:46;;;;;;;5.75;3.22;;;17.80;90.90;;;;;;5146596;27;20163;-63
2022/06/16 06:36:12;;;;;;;4.57;2.40;;;18.10;90.30;;;;;;5150530;27;20127;-63
2022/06/16 06:38:37;;;;;;;6.07;2.70;;;18.30;88.90;;;;;;5150789;27;20175;-63
2022/06/16 06:41:04;;;;;;;3.70;2.25;;;18.50;87.20;;;;;;5151600;27;20131;-64
2022/06/16 06:43:30;;;;;;;3.90;2.00;;;18.60;86.00;;;;;;5148244;27;20117;-63
2022/06/16 06:45:55;;;;;;;3.45;1.52;;;18.90;84.20;;;;;;5130385;27;20159;-63
2022/06/16 06:48:21;;;;;;;2.50;1.02;;;19.10;80.40;;;;;;5154129;27;20091;-64
2022/06/16 06:50:46;;;;;;;3.50;1.30;;;19.10;77.10;;;;;;5153210;27;20058;-63
2022/06/16 06:53:12;;;;;;;1.58;1.05;;;19.30;75.40;;;;;;5149127;27;20061;-63
2022/06/16 06:55:41;;;;;;;3.38;0.88;;;19.50;72.50;;;;;;5150737;27;20126;-62
2022/06/16 06:58:08;;;;;;;2.38;0.70;;;19.60;69.40;;;;;;5136385;27;20042;-63
2022/06/16 07:00:33;;;;;;;2.35;1.00;;;19.80;70.90;;;;;;5132441;27;20049;-64
2022/06/16 07:02:59;;;;;;;2.90;1.00;;;20.00;69.80;;;;;;5151848;27;20042;-63
2022/06/16 07:05:25;;;;;;;1.77;0.90;;;20.10;69.30;;;;;;5155556;27;20039;-64
2022/06/16 07:07:50;;;;;;;2.90;1.35;;;20.20;68.10;;;;;;5154231;27;20074;-63
2022/06/16 07:10:17;;;;;;;3.80;1.30;;;20.20;68.20;;;;;;5150185;27;20041;-64
2022/06/16 07:12:43;;;;;;;1.88;1.00;;;20.50;66.80;;;;;;5152641;27;20039;-63
2022/06/16 07:15:10;;;;;;;1.90;1.20;;;20.50;65.40;;;;;;5151677;27;20103;-63
2022/06/16 07:17:36;;;;;;;2.53;1.20;;;20.60;64.60;;;;;;5149990;27;20041;-63
2022/06/16 07:20:02;;;;;;;3.22;1.38;;;20.80;64.30;;;;;;5154957;27;20416;-64
2022/06/16 07:22:28;;;;;;;3.28;1.50;;;21.00;62.60;;;;;;5153458;27;20035;-63
2022/06/16 07:24:53;;;;;;;4.57;1.60;;;21.20;61.60;;;;;;5152056;27;20071;-64
2022/06/16 07:27:20;;;;;;;1.83;1.38;;;21.30;59.40;;;;;;5149490;27;20176;-63
2022/06/16 07:29:49;;;;;;;2.95;1.67;;;21.50;58.40;;;;;;5133460;27;20047;-65
2022/06/16 07:32:15;;;;;;;3.60;1.67;;;21.50;57.40;;;;;;5142922;27;20035;-63
2022/06/16 07:34:41;;;;;;;5.40;1.80;;;21.80;57.20;;;;;;5144370;27;20035;-64
2022/06/16 07:37:07;;;;;;;2.95;2.10;;;21.80;57.00;;;;;;5145682;27;20043;-64
2022/06/16 07:39:32;;;;;;;3.17;1.65;;;21.90;56.60;;;;;;5154937;27;20042;-65
2022/06/16 07:41:58;;;;;;;2.35;1.45;;;22.00;55.80;;;;;;5153029;27;20034;-64
2022/06/16 07:44:23;;;;;;;2.38;1.23;;;22.30;54.60;;;;;;5151293;27;20087;-64
2022/06/16 07:46:49;;;;;;;2.13;1.17;;;22.50;53.50;;;;;;5149015;27;20058;-64
2022/06/16 07:49:21;;;;;;;2.42;1.48;;;22.70;52.90;;;;;;5150896;27;20050;-64
2022/06/16 07:51:47;;;;;;;2.90;1.60;;;22.80;52.00;;;;;;5149914;27;20034;-64
2022/06/16 07:54:14;;;;;;;2.85;1.40;;;23.00;52.10;;;;;;5148498;27;20046;-64
2022/06/16 07:56:40;;;;;;;3.83;1.67;;;23.20;51.90;;;;;;5154122;27;20159;-64
2022/06/16 07:59:06;;;;;;;3.45;1.63;;;23.20;51.30;;;;;;5150941;27;20133;-63
2022/06/16 08:01:31;;;;;;;4.18;1.63;;;23.20;50.90;;;;;;5150584;27;20208;-64
2022/06/16 08:03:58;;;;;;;5.68;1.70;;;23.20;50.20;;;;;;5151159;27;20443;-65
2022/06/16 08:06:27;;;;;;;3.38;1.52;;;23.40;49.10;;;;;;5149023;27;20063;-64
2022/06/16 08:08:56;;;;;;;3.33;1.52;;;23.50;48.10;;;;;;5151265;27;20046;-65
2022/06/16 08:14:06;;;;;;;2.70;1.60;;;23.90;48.50;;;;;;5150848;27;20107;-65
2022/06/16 08:16:33;;;;;;;4.47;1.02;;;24.20;49.00;;;;;;5150395;27;20062;-65
2022/06/16 08:18:59;;;;;;;3.58;1.70;;;24.60;48.30;;;;;;5154185;27;20042;-65
2022/06/16 08:21:25;;;;;;;4.07;1.70;;;24.50;47.00;;;;;;5154522;27;20492;-65
2022/06/16 08:23:51;;;;;;;3.05;1.50;;;24.70;45.60;;;;;;5149664;27;20070;-64
2022/06/16 08:26:16;;;;;;;3.88;1.55;;;24.90;45.40;;;;;;5147788;27;20049;-64
2022/06/16 08:28:42;;;;;;;5.10;1.50;;;24.70;46.00;;;;;;5152247;27;20046;-65
2022/06/16 08:31:08;;;;;;;4.38;1.23;;;24.70;45.00;;;;;;5146045;27;20039;-65
2022/06/16 08:33:34;;;;;;;3.05;1.15;;;24.80;44.90;;;;;;5153674;27;20039;-66
2022/06/16 08:36:00;;;;;;;3.03;1.33;;;25.30;45.10;;;;;;5148814;27;20031;-65
2022/06/16 08:38:26;;;;;;;4.15;1.42;;;25.80;43.70;;;;;;5151249;27;20046;-65
2022/06/16 08:41:11;;;;;;;4.00;1.33;;;26.00;43.50;;;;;;5153534;27;20436;-62
2022/06/16 08:43:43;;;;;;;5.57;1.20;;;26.10;43.30;;;;;;5151726;27;20041;-62
2022/06/16 08:46:12;;;;;;;4.00;1.38;;;26.50;43.20;;;;;;5143766;27;20038;-63
2022/06/16 08:49:09;;;;;;;3.22;1.10;;;26.90;42.90;;;;;;5133251;27;20045;-63
2022/06/16 08:51:53;;;;;;;2.35;0.90;;;27.30;40.50;;;;;;5153985;27;20035;-62
2022/06/16 08:54:36;;;;;;;2.97;1.30;;;27.90;39.00;;;;;;5150888;27;20058;-62
2022/06/16 08:57:25;;;;;;;2.80;0.70;;;27.60;39.10;;;;;;5152927;27;20431;-63
2022/06/16 08:59:54;;;;;;;5.25;1.42;;;28.10;39.10;;;;;;5147483;27;20401;-63
2022/06/16 09:02:58;;;;;;;2.38;1.35;;;28.40;39.00;;;;;;5152478;27;20046;-63
2022/06/16 09:05:56;;;;;;;3.13;1.23;;;28.40;36.90;;;;;;5124264;27;20035;-63
2022/06/16 09:10:14;;;;;;;4.15;1.30;;;29.00;37.30;;;;;;5150949;27;20117;-62
2022/06/16 09:12:31;;;;;;;3.47;1.40;;;29.20;37.50;;;;;;5086729;28;20568;-62
2022/06/16 09:15:22;;;;;;;2.33;1.70;;;29.30;37.60;;;;;;5084758;28;20040;-63
2022/06/16 09:18:25;;;;;;;3.25;1.85;;;29.30;37.50;;;;;;5111113;28;20043;-63
2022/06/16 09:21:21;;;;;;;5.93;1.40;;;29.60;36.20;;;;;;5138820;27;20030;-63
2022/06/16 09:24:25;;;;;;;3.13;1.55;;;30.20;36.40;;;;;;5150862;27;20030;-63
2022/06/16 09:26:54;;;;;;;2.92;1.60;;;30.40;33.70;;;;;;5148858;27;20094;-63
2022/06/16 09:29:42;;;;;;;3.63;1.77;;;30.50;35.50;;;;;;5150280;27;20127;-63
2022/06/16 09:32:19;;;;;;;4.88;2.10;;;30.70;34.10;;;;;;5143831;27;20038;-63
2022/06/16 09:35:12;;;;;;;3.30;1.77;;;30.60;34.20;;;;;;5144913;27;20027;-64
2022/06/16 09:38:05;;;;;;;4.50;2.35;;;31.00;34.00;;;;;;5135482;27;20074;-64
2022/06/16 09:40:43;;;;;;;5.63;2.03;;;31.60;34.70;;;;;;5153402;27;20110;-64
2022/06/16 09:43:17;;;;;;;4.22;2.03;;;32.10;32.30;;;;;;5135716;27;20103;-64
2022/06/16 09:46:06;;;;;;;4.60;2.22;;;32.30;32.10;;;;;;5132834;27;20365;-63
2022/06/16 09:48:39;;;;;;;2.95;1.83;;;32.20;31.20;;;;;;5141795;27;20051;-64
2022/06/16 09:51:14;;;;;;;3.25;1.95;;;31.60;32.10;;;;;;5150172;27;20100;-63
2022/06/16 09:53:48;;;;;;;3.70;1.90;;;32.10;32.80;;;;;;5144452;27;20401;-64
2022/06/16 09:56:23;;;;;;;4.43;2.47;;;32.60;32.70;;;;;;5148462;27;20126;-63
2022/06/16 09:59:03;;;;;;;7.00;2.90;;;33.00;31.70;;;;;;5153548;27;20038;-64
2022/06/16 10:01:35;;;;;;;3.45;1.83;;;32.90;30.90;;;;;;5153755;27;20070;-64
2022/06/16 10:04:07;;;;;;;4.07;2.13;;;33.50;31.20;;;;;;5151621;27;20035;-63
2022/06/16 10:06:35;;;;;;;5.72;2.50;;;33.00;31.20;;;;;;5157110;27;20387;-63
2022/06/16 10:09:05;;;;;;;3.60;2.28;;;31.70;32.10;;;;;;5155898;27;20043;-63
2022/06/16 10:11:51;;;;;;;4.70;2.30;;;31.70;32.70;;;;;;5138677;27;20095;-63
2022/06/16 10:14:26;;;;;;;3.22;2.10;;;31.20;32.90;;;;;;5115848;27;20058;-63
2022/06/16 10:16:59;;;;;;;3.63;2.25;;;31.30;33.10;;;;;;5120083;27;20038;-63
2022/06/16 10:19:28;;;;;;;4.78;2.17;;;31.90;32.70;;;;;;5153962;27;20149;-63
2022/06/16 10:21:55;;;;;;;5.07;2.60;;;32.30;32.20;;;;;;5150305;27;20389;-63
2022/06/16 10:24:25;;;;;;;3.78;2.10;;;33.20;30.70;;;;;;5136649;27;20042;-64
2022/06/16 10:26:52;;;;;;;3.05;1.75;;;33.60;30.70;;;;;;5154987;27;20047;-63
2022/06/16 10:29:26;;;;;;;5.93;2.33;;;34.10;30.80;;;;;;5157473;27;20043;-64
2022/06/16 10:31:54;;;;;;;4.45;2.30;;;34.50;30.30;;;;;;5150240;27;20084;-63
2022/06/16 10:34:34;;;;;;;4.03;2.40;;;34.60;29.80;;;;;;5173471;27;20098;-64
2022/06/16 10:37:19;;;;;;;3.72;1.95;;;34.80;29.40;;;;;;5148543;27;20428;-64
2022/06/16 10:39:55;;;;;;;3.00;1.90;;;35.20;30.10;;;;;;5149700;27;20038;-63
2022/06/16 10:42:27;;;;;;;4.55;2.75;;;34.90;29.90;;;;;;5153006;27;20034;-64
2022/06/16 10:45:20;;;;;;;4.13;2.47;;;35.10;29.00;;;;;;5150404;27;20039;-64
2022/06/16 10:47:51;;;;;;;3.65;2.08;;;35.00;29.50;;;;;;5134849;27;20035;-64
2022/06/16 10:50:32;;;;;;;3.83;2.53;;;34.90;29.70;;;;;;5150386;27;20470;-63
2022/06/16 10:53:05;;;;;;;3.95;2.10;;;34.80;29.40;;;;;;5148559;27;20050;-63
2022/06/16 10:55:43;;;;;;;4.07;2.17;;;33.60;29.70;;;;;;5155011;27;20034;-63
2022/06/16 10:58:16;;;;;;;3.70;1.92;;;33.00;30.60;;;;;;5147227;27;20158;-64
2022/06/16 11:00:42;;;;;;;6.68;2.28;;;32.70;31.70;;;;;;5145014;27;20470;-63
2022/06/16 11:03:16;;;;;;;2.92;2.17;;;32.20;31.60;;;;;;5147044;27;20039;-64
2022/06/16 11:05:50;;;;;;;3.83;3.03;;;31.70;32.40;;;;;;5122976;27;20592;-63
2022/06/16 11:08:16;;;;;;;5.13;3.17;;;30.90;32.40;;;;;;5152725;27;20125;-63
2022/06/16 11:10:55;;;;;;;3.15;2.33;;;30.00;33.50;;;;;;5162102;27;20105;-64
2022/06/16 11:13:27;;;;;;;4.07;2.50;;;29.10;33.80;;;;;;5171332;27;20035;-63
2022/06/16 11:15:53;;;;;;;4.40;2.08;;;28.30;36.00;;;;;;5151782;27;20046;-63
2022/06/16 11:18:24;;;;;;;6.70;2.55;;;27.80;37.40;;;;;;5152150;27;20039;-64
2022/06/16 11:20:53;;;;;;;5.55;3.00;;;27.70;37.10;;;;;;5152101;27;20125;-64
2022/06/16 11:23:32;;;;;;;5.30;2.25;;;27.70;36.90;;;;;;5151568;27;20037;-63
2022/06/16 11:26:06;;;;;;;3.70;2.30;;;27.70;37.40;;;;;;5149363;27;20042;-64
2022/06/16 11:28:44;;;;;;;7.00;2.45;;;27.80;37.10;;;;;;5155545;27;20470;-63
2022/06/16 11:31:17;;;;;;;5.10;2.63;;;27.50;38.00;;;;;;5131324;27;20050;-63
2022/06/16 11:36:50;;;;;;;4.85;2.60;;;26.80;38.60;;;;;;5150801;27;20039;-63
2022/06/16 11:39:41;;;;;;;3.33;2.20;;;27.00;39.80;;;;;;5149116;27;20423;-63
2022/06/16 11:42:26;;;;;;;4.60;2.83;;;27.20;39.80;;;;;;5155070;27;20049;-63
2022/06/16 11:45:04;;;;;;;5.35;3.00;;;27.10;38.50;;;;;;5148172;27;20066;-63
2022/06/16 11:48:22;;;;;;;3.95;2.45;;;27.10;38.70;;;;;;5153843;27;20038;-63
2022/06/16 11:50:53;;;;;;;4.07;2.15;;;27.20;39.30;;;;;;5115765;27;20138;-63
2022/06/16 11:53:30;;;;;;;5.40;2.40;;;27.20;39.20;;;;;;5151308;27;20133;-64
2022/06/16 11:56:18;;;;;;;4.75;2.25;;;26.90;39.30;;;;;;5145161;27;20042;-63
2022/06/16 11:58:51;;;;;;;4.00;1.85;;;27.10;39.30;;;;;;5146491;27;20039;-64
2022/06/16 12:01:28;;;;;;;2.95;2.20;;;27.30;40.00;;;;;;5149402;27;20435;-63
2022/06/16 12:04:32;;;;;;;3.25;2.10;;;27.50;40.00;;;;;;5152315;27;20034;-63
2022/06/16 12:07:18;;;;;;;7.20;2.30;;;27.80;38.70;;;;;;5154651;27;20053;-64
2022/06/16 12:09:58;;;;;;;2.97;2.60;;;27.60;38.70;;;;;;5151628;27;20051;-63
2022/06/16 12:12:33;;;;;;;3.22;2.28;;;27.80;38.10;;;;;;5152657;27;20061;-64
2022/06/16 12:15:07;;;;;;;6.88;2.47;;;28.40;38.30;;;;;;5150338;27;20382;-63
2022/06/16 12:18:07;;;;;;;3.90;2.20;;;29.60;37.20;;;;;;5152234;27;20038;-63
2022/06/16 12:20:49;;;;;;;4.55;2.20;;;30.90;36.20;;;;;;5153459;27;20113;-63
2022/06/16 12:23:18;;;;;;;5.63;2.20;;;32.00;34.70;;;;;;5153722;27;20045;-64
2022/06/16 12:25:55;;;;;;;3.63;2.50;;;32.60;33.20;;;;;;5151675;27;20062;-64
2022/06/16 12:28:28;;;;;;;3.35;2.58;;;33.60;31.50;;;;;;5151964;27;20043;-64
2022/06/16 12:31:00;;;;;;;2.75;2.10;;;34.70;30.40;;;;;;5148384;27;20089;-64
2022/06/16 12:33:43;;;;;;;4.10;2.20;;;35.60;29.80;;;;;;5143534;27;20038;-64
2022/06/16 12:36:29;;;;;;;2.80;2.28;;;36.50;29.60;;;;;;5125653;27;20043;-63
2022/06/16 12:39:01;;;;;;;3.47;2.40;;;37.20;28.10;;;;;;5133495;27;20071;-64
2022/06/16 12:41:34;;;;;;;5.55;2.38;;;38.30;27.30;;;;;;5152951;27;20038;-64
2022/06/16 12:44:00;;;;;;;4.45;2.40;;;38.70;26.90;;;;;;5130184;27;20397;-63
2022/06/16 12:46:35;;;;;;;3.95;2.17;;;39.20;26.20;;;;;;5149864;27;20045;-63
2022/06/16 12:49:09;;;;;;;5.45;2.40;;;37.70;25.40;;;;;;5153044;27;20074;-64
2022/06/16 12:51:44;;;;;;;2.30;1.95;;;38.50;25.60;;;;;;5140926;27;20370;-64
2022/06/16 12:54:17;;;;;;;3.95;2.00;;;38.80;25.90;;;;;;5135285;27;20239;-64
2022/06/16 12:56:51;;;;;;;2.42;2.22;;;39.10;25.60;;;;;;5153820;27;20402;-64
2022/06/16 12:59:26;;;;;;;3.83;2.33;;;39.50;25.50;;;;;;5148478;27;20038;-64
2022/06/16 13:01:56;;;;;;;4.47;2.20;;;39.70;24.90;;;;;;5141562;27;20047;-62
2022/06/16 13:04:24;;;;;;;;;;;39.40;24.80;;;;;;5151815;27;20125;-63
2022/06/16 13:06:50;;;;;;;4.10;1.95;;;39.10;25.10;;;;;;5151214;27;19929;-64
2022/06/16 13:09:16;;;;;;;3.13;1.95;;;39.30;25.40;;;;;;5148881;27;20425;-64
2022/06/16 13:12:11;;;;;;;5.97;2.30;;;38.40;25.20;;;;;;5147771;27;20038;-63
2022/06/16 13:14:57;;;;;;;7.13;2.75;;;36.30;25.70;;;;;;5149077;27;20088;-63
2022/06/16 13:17:27;;;;;;;4.18;2.35;;;34.60;26.70;;;;;;5160879;27;20386;-63
2022/06/16 13:20:00;;;;;;;2.47;2.10;;;34.10;27.80;;;;;;5160877;27;20381;-64
2022/06/16 13:22:33;;;;;;;3.33;2.47;;;33.30;28.60;;;;;;5167145;27;20122;-63
2022/06/16 13:25:04;;;;;;;3.03;2.20;;;32.50;29.20;;;;;;5136388;27;20039;-63
2022/06/16 13:27:40;;;;;;;2.42;2.10;;;33.40;28.90;;;;;;5153382;27;20717;-62
2022/06/16 13:30:05;;;;;;;3.22;2.25;;;34.60;28.50;;;;;;5155156;27;20095;-63
2022/06/16 13:32:48;;;;;;;4.03;2.00;;;35.30;27.70;;;;;;5153836;27;20034;-64
2022/06/16 13:35:14;;;;;;;4.50;1.80;;;35.10;27.30;;;;;;5154631;27;20035;-63